sensor_id;sensor_type;location;lat;lon;timestamp;P1;durP1;ratioP1;P2;durP2;ratioP2
25319;SDS011;13256;49.012;8.610;2023-06-24T00:04:27;7.78;;;4.80;;
25319;SDS011;13256;49.012;8.610;2023-06-24T00:06:54;7.72;;;4.90;;
25319;SDS011;13256;49.012;8.610;2023-06-24T00:09:25;7.68;;;4.60;;
25319;SDS011;13256;49.012;8.610;2023-06-24T00:15:00;6.70;;;4.45;;
25319;SDS011;13256;49.012;8.610;2023-06-24T00:38:57;7.88;;;3.90;;
25319;SDS011;13256;49.012;8.610;2023-06-24T00:47:40;7.78;;;4.72;;
25319;SDS011;13256;49.012;8.610;2023-06-24T02:14:02;5.10;;;3.72;;
25319;SDS011;13256;49.012;8.610;2023-06-24T02:19:44;9.82;;;4.30;;
25319;SDS011;13256;49.012;8.610;2023-06-24T02:22:42;8.95;;;4.85;;
25319;SDS011;13256;49.012;8.610;2023-06-24T02:53:40;5.88;;;3.70;;
25319;SDS011;13256;49.012;8.610;2023-06-24T02:56:15;8.77;;;4.70;;
25319;SDS011;13256;49.012;8.610;2023-06-24T03:01:40;11.93;;;5.00;;
25319;SDS011;13256;49.012;8.610;2023-06-24T03:30:17;8.18;;;4.30;;
25319;SDS011;13256;49.012;8.610;2023-06-24T03:36:46;8.48;;;4.50;;
25319;SDS011;13256;49.012;8.610;2023-06-24T03:39:17;6.30;;;4.47;;
25319;SDS011;13256;49.012;8.610;2023-06-24T03:41:47;9.68;;;4.47;;
25319;SDS011;13256;49.012;8.610;2023-06-24T03:44:14;9.40;;;4.22;;
25319;SDS011;13256;49.012;8.610;2023-06-24T03:46:46;11.82;;;4.90;;
25319;SDS011;13256;49.012;8.610;2023-06-24T03:49:23;7.07;;;4.60;;
25319;SDS011;13256;49.012;8.610;2023-06-24T03:52:02;7.35;;;4.53;;
25319;SDS011;13256;49.012;8.610;2023-06-24T03:54:38;9.27;;;4.75;;
25319;SDS011;13256;49.012;8.610;2023-06-24T03:57:06;13.48;;;5.07;;
25319;SDS011;13256;49.012;8.610;2023-06-24T03:59:35;11.15;;;5.03;;
25319;SDS011;13256;49.012;8.610;2023-06-24T04:02:04;8.18;;;4.82;;
25319;SDS011;13256;49.012;8.610;2023-06-24T04:04:35;8.48;;;5.20;;
25319;SDS011;13256;49.012;8.610;2023-06-24T04:07:03;6.85;;;4.80;;
25319;SDS011;13256;49.012;8.610;2023-06-24T04:09:34;6.88;;;4.00;;
25319;SDS011;13256;49.012;8.610;2023-06-24T04:12:03;7.43;;;4.78;;
25319;SDS011;13256;49.012;8.610;2023-06-24T04:14:35;8.57;;;4.07;;
25319;SDS011;13256;49.012;8.610;2023-06-24T04:17:04;6.55;;;4.70;;
25319;SDS011;13256;49.012;8.610;2023-06-24T04:19:34;7.60;;;4.28;;
25319;SDS011;13256;49.012;8.610;2023-06-24T04:22:07;7.30;;;3.67;;
25319;SDS011;13256;49.012;8.610;2023-06-24T04:24:36;7.53;;;4.45;;
25319;SDS011;13256;49.012;8.610;2023-06-24T04:27:52;10.27;;;4.70;;
25319;SDS011;13256;49.012;8.610;2023-06-24T04:30:19;6.88;;;4.40;;
25319;SDS011;13256;49.012;8.610;2023-06-24T04:32:47;5.85;;;4.30;;
25319;SDS011;13256;49.012;8.610;2023-06-24T04:35:17;11.95;;;5.40;;
25319;SDS011;13256;49.012;8.610;2023-06-24T04:37:43;7.28;;;4.53;;
25319;SDS011;13256;49.012;8.610;2023-06-24T04:40:19;12.90;;;4.68;;
25319;SDS011;13256;49.012;8.610;2023-06-24T04:42:47;7.68;;;5.05;;
25319;SDS011;13256;49.012;8.610;2023-06-24T04:45:19;6.35;;;4.30;;
25319;SDS011;13256;49.012;8.610;2023-06-24T04:47:54;8.15;;;4.28;;
25319;SDS011;13256;49.012;8.610;2023-06-24T04:50:26;13.40;;;4.53;;
25319;SDS011;13256;49.012;8.610;2023-06-24T04:52:53;10.32;;;5.07;;
25319;SDS011;13256;49.012;8.610;2023-06-24T04:55:29;6.95;;;4.72;;
25319;SDS011;13256;49.012;8.610;2023-06-24T04:57:59;7.22;;;4.88;;
25319;SDS011;13256;49.012;8.610;2023-06-24T05:00:26;8.88;;;4.35;;
25319;SDS011;13256;49.012;8.610;2023-06-24T05:02:53;7.28;;;4.13;;
25319;SDS011;13256;49.012;8.610;2023-06-24T05:05:21;8.90;;;4.95;;
25319;SDS011;13256;49.012;8.610;2023-06-24T05:07:50;8.13;;;4.55;;
25319;SDS011;13256;49.012;8.610;2023-06-24T05:10:18;8.07;;;4.85;;
25319;SDS011;13256;49.012;8.610;2023-06-24T05:12:49;8.00;;;4.78;;
25319;SDS011;13256;49.012;8.610;2023-06-24T05:15:18;8.85;;;4.43;;
25319;SDS011;13256;49.012;8.610;2023-06-24T05:17:47;7.78;;;4.65;;
25319;SDS011;13256;49.012;8.610;2023-06-24T05:20:15;6.38;;;4.40;;
25319;SDS011;13256;49.012;8.610;2023-06-24T05:22:43;7.68;;;4.10;;
25319;SDS011;13256;49.012;8.610;2023-06-24T05:25:14;8.20;;;4.30;;
25319;SDS011;13256;49.012;8.610;2023-06-24T05:27:40;7.70;;;4.20;;
25319;SDS011;13256;49.012;8.610;2023-06-24T05:30:07;8.57;;;5.00;;
25319;SDS011;13256;49.012;8.610;2023-06-24T05:35:30;7.97;;;4.40;;
25319;SDS011;13256;49.012;8.610;2023-06-24T05:38:01;9.15;;;4.82;;
25319;SDS011;13256;49.012;8.610;2023-06-24T05:40:30;10.60;;;4.35;;
25319;SDS011;13256;49.012;8.610;2023-06-24T05:43:01;6.30;;;4.50;;
25319;SDS011;13256;49.012;8.610;2023-06-24T05:45:30;6.83;;;4.63;;
25319;SDS011;13256;49.012;8.610;2023-06-24T05:48:05;9.00;;;4.30;;
25319;SDS011;13256;49.012;8.610;2023-06-24T05:50:32;6.47;;;3.95;;
25319;SDS011;13256;49.012;8.610;2023-06-24T05:52:58;5.57;;;4.45;;
25319;SDS011;13256;49.012;8.610;2023-06-24T05:55:25;7.60;;;4.50;;
25319;SDS011;13256;49.012;8.610;2023-06-24T05:58:00;5.60;;;4.40;;
25319;SDS011;13256;49.012;8.610;2023-06-24T06:00:26;6.07;;;3.97;;
25319;SDS011;13256;49.012;8.610;2023-06-24T06:02:53;6.15;;;4.07;;
25319;SDS011;13256;49.012;8.610;2023-06-24T06:05:25;5.78;;;4.05;;
25319;SDS011;13256;49.012;8.610;2023-06-24T06:07:52;5.57;;;4.25;;
25319;SDS011;13256;49.012;8.610;2023-06-24T06:10:19;7.22;;;4.60;;
25319;SDS011;13256;49.012;8.610;2023-06-24T06:12:47;4.95;;;3.70;;
25319;SDS011;13256;49.012;8.610;2023-06-24T06:15:17;6.32;;;4.30;;
25319;SDS011;13256;49.012;8.610;2023-06-24T06:17:48;6.97;;;4.20;;
25319;SDS011;13256;49.012;8.610;2023-06-24T06:20:15;8.48;;;4.30;;
25319;SDS011;13256;49.012;8.610;2023-06-24T06:22:42;11.85;;;4.80;;
25319;SDS011;13256;49.012;8.610;2023-06-24T06:25:11;8.13;;;4.63;;
25319;SDS011;13256;49.012;8.610;2023-06-24T06:27:41;4.50;;;3.75;;
25319;SDS011;13256;49.012;8.610;2023-06-24T06:30:14;6.85;;;4.07;;
25319;SDS011;13256;49.012;8.610;2023-06-24T06:32:44;5.78;;;3.88;;
25319;SDS011;13256;49.012;8.610;2023-06-24T06:35:14;6.47;;;3.97;;
25319;SDS011;13256;49.012;8.610;2023-06-24T06:37:42;6.15;;;4.35;;
25319;SDS011;13256;49.012;8.610;2023-06-24T06:40:10;7.72;;;4.03;;
25319;SDS011;13256;49.012;8.610;2023-06-24T06:42:39;9.18;;;4.25;;
25319;SDS011;13256;49.012;8.610;2023-06-24T06:45:08;7.80;;;4.43;;
25319;SDS011;13256;49.012;8.610;2023-06-24T06:47:40;9.73;;;4.43;;
25319;SDS011;13256;49.012;8.610;2023-06-24T06:50:07;8.20;;;4.00;;
25319;SDS011;13256;49.012;8.610;2023-06-24T06:52:35;6.32;;;4.22;;
25319;SDS011;13256;49.012;8.610;2023-06-24T06:55:03;7.80;;;4.82;;
25319;SDS011;13256;49.012;8.610;2023-06-24T06:57:32;5.63;;;3.90;;
25319;SDS011;13256;49.012;8.610;2023-06-24T07:00:00;8.00;;;4.32;;
25319;SDS011;13256;49.012;8.610;2023-06-24T07:02:28;6.45;;;4.18;;
25319;SDS011;13256;49.012;8.610;2023-06-24T07:04:55;8.55;;;3.95;;
25319;SDS011;13256;49.012;8.610;2023-06-24T07:07:23;9.45;;;4.15;;
25319;SDS011;13256;49.012;8.610;2023-06-24T07:09:50;6.18;;;4.40;;
25319;SDS011;13256;49.012;8.610;2023-06-24T07:12:20;5.28;;;3.58;;
25319;SDS011;13256;49.012;8.610;2023-06-24T07:14:48;7.43;;;3.90;;
25319;SDS011;13256;49.012;8.610;2023-06-24T07:17:20;5.10;;;3.50;;
25319;SDS011;13256;49.012;8.610;2023-06-24T07:19:48;7.00;;;4.03;;
25319;SDS011;13256;49.012;8.610;2023-06-24T07:22:16;7.13;;;3.85;;
25319;SDS011;13256;49.012;8.610;2023-06-24T07:24:44;5.72;;;3.88;;
25319;SDS011;13256;49.012;8.610;2023-06-24T07:27:12;4.97;;;3.65;;
25319;SDS011;13256;49.012;8.610;2023-06-24T07:29:44;6.20;;;4.18;;
25319;SDS011;13256;49.012;8.610;2023-06-24T07:32:14;4.72;;;3.70;;
25319;SDS011;13256;49.012;8.610;2023-06-24T07:34:44;6.65;;;3.97;;
25319;SDS011;13256;49.012;8.610;2023-06-24T07:37:15;5.85;;;4.03;;
25319;SDS011;13256;49.012;8.610;2023-06-24T07:39:51;5.97;;;3.75;;
25319;SDS011;13256;49.012;8.610;2023-06-24T07:42:18;6.07;;;3.70;;
25319;SDS011;13256;49.012;8.610;2023-06-24T07:44:49;4.80;;;3.35;;
25319;SDS011;13256;49.012;8.610;2023-06-24T07:47:18;5.97;;;3.80;;
25319;SDS011;13256;49.012;8.610;2023-06-24T07:49:48;6.45;;;3.63;;
25319;SDS011;13256;49.012;8.610;2023-06-24T07:55:10;5.35;;;3.72;;
25319;SDS011;13256;49.012;8.610;2023-06-24T07:57:40;3.95;;;2.83;;
25319;SDS011;13256;49.012;8.610;2023-06-24T08:00:12;5.10;;;3.50;;
25319;SDS011;13256;49.012;8.610;2023-06-24T08:02:43;4.97;;;3.58;;
25319;SDS011;13256;49.012;8.610;2023-06-24T08:05:11;5.45;;;3.58;;
25319;SDS011;13256;49.012;8.610;2023-06-24T08:07:44;5.22;;;3.03;;
25319;SDS011;13256;49.012;8.610;2023-06-24T08:10:12;5.75;;;3.63;;
25319;SDS011;13256;49.012;8.610;2023-06-24T08:12:44;4.75;;;3.53;;
25319;SDS011;13256;49.012;8.610;2023-06-24T08:15:11;4.85;;;3.50;;
25319;SDS011;13256;49.012;8.610;2023-06-24T08:17:43;5.18;;;3.00;;
25319;SDS011;13256;49.012;8.610;2023-06-24T08:20:13;4.30;;;2.95;;
25319;SDS011;13256;49.012;8.610;2023-06-24T08:22:42;4.97;;;3.22;;
25319;SDS011;13256;49.012;8.610;2023-06-24T08:25:09;4.53;;;3.50;;
25319;SDS011;13256;49.012;8.610;2023-06-24T08:27:37;5.55;;;2.80;;
25319;SDS011;13256;49.012;8.610;2023-06-24T08:30:08;4.95;;;2.83;;
25319;SDS011;13256;49.012;8.610;2023-06-24T08:32:35;5.07;;;2.70;;
25319;SDS011;13256;49.012;8.610;2023-06-24T08:35:03;3.33;;;2.33;;
25319;SDS011;13256;49.012;8.610;2023-06-24T08:37:33;3.63;;;2.72;;
25319;SDS011;13256;49.012;8.610;2023-06-24T08:40:00;3.55;;;2.58;;
25319;SDS011;13256;49.012;8.610;2023-06-24T08:42:27;2.65;;;2.22;;
25319;SDS011;13256;49.012;8.610;2023-06-24T08:44:54;3.38;;;2.50;;
25319;SDS011;13256;49.012;8.610;2023-06-24T08:47:25;3.67;;;2.40;;
25319;SDS011;13256;49.012;8.610;2023-06-24T08:50:03;3.72;;;2.25;;
25319;SDS011;13256;49.012;8.610;2023-06-24T08:52:35;3.08;;;2.40;;
25319;SDS011;13256;49.012;8.610;2023-06-24T08:55:04;5.00;;;2.35;;
25319;SDS011;13256;49.012;8.610;2023-06-24T08:57:34;5.00;;;2.80;;
25319;SDS011;13256;49.012;8.610;2023-06-24T09:00:03;3.33;;;2.35;;
25319;SDS011;13256;49.012;8.610;2023-06-24T09:02:32;4.63;;;2.35;;
25319;SDS011;13256;49.012;8.610;2023-06-24T09:05:05;3.88;;;2.67;;
25319;SDS011;13256;49.012;8.610;2023-06-24T09:07:33;3.38;;;2.40;;
25319;SDS011;13256;49.012;8.610;2023-06-24T09:10:00;5.78;;;2.80;;
25319;SDS011;13256;49.012;8.610;2023-06-24T09:12:33;5.10;;;2.90;;
25319;SDS011;13256;49.012;8.610;2023-06-24T09:15:01;3.63;;;2.60;;
25319;SDS011;13256;49.012;8.610;2023-06-24T09:17:32;3.78;;;2.38;;
25319;SDS011;13256;49.012;8.610;2023-06-24T09:20:03;4.70;;;2.80;;
25319;SDS011;13256;49.012;8.610;2023-06-24T09:22:33;4.55;;;3.10;;
25319;SDS011;13256;49.012;8.610;2023-06-24T09:25:00;4.65;;;2.72;;
25319;SDS011;13256;49.012;8.610;2023-06-24T09:27:31;3.83;;;2.45;;
25319;SDS011;13256;49.012;8.610;2023-06-24T09:32:44;5.47;;;2.85;;
25319;SDS011;13256;49.012;8.610;2023-06-24T09:35:11;3.60;;;2.60;;
25319;SDS011;13256;49.012;8.610;2023-06-24T09:37:38;4.00;;;2.45;;
25319;SDS011;13256;49.012;8.610;2023-06-24T09:40:05;5.18;;;2.58;;
25319;SDS011;13256;49.012;8.610;2023-06-24T09:42:36;4.03;;;2.50;;
25319;SDS011;13256;49.012;8.610;2023-06-24T09:45:06;3.78;;;2.40;;
25319;SDS011;13256;49.012;8.610;2023-06-24T09:47:33;2.72;;;2.15;;
25319;SDS011;13256;49.012;8.610;2023-06-24T09:50:00;2.72;;;2.47;;
25319;SDS011;13256;49.012;8.610;2023-06-24T09:52:30;4.15;;;2.40;;
25319;SDS011;13256;49.012;8.610;2023-06-24T09:54:58;2.78;;;2.40;;
25319;SDS011;13256;49.012;8.610;2023-06-24T09:57:33;4.00;;;2.47;;
25319;SDS011;13256;49.012;8.610;2023-06-24T10:00:02;4.18;;;2.17;;
25319;SDS011;13256;49.012;8.610;2023-06-24T10:02:31;3.55;;;2.67;;
25319;SDS011;13256;49.012;8.610;2023-06-24T10:05:00;3.33;;;2.30;;
25319;SDS011;13256;49.012;8.610;2023-06-24T10:07:28;2.53;;;2.10;;
25319;SDS011;13256;49.012;8.610;2023-06-24T10:09:55;4.43;;;2.70;;
25319;SDS011;13256;49.012;8.610;2023-06-24T10:12:21;3.80;;;2.25;;
25319;SDS011;13256;49.012;8.610;2023-06-24T10:14:52;4.40;;;2.77;;
25319;SDS011;13256;49.012;8.610;2023-06-24T10:17:23;4.13;;;2.42;;
25319;SDS011;13256;49.012;8.610;2023-06-24T10:26:24;2.80;;;2.35;;
25319;SDS011;13256;49.012;8.610;2023-06-24T10:42:38;2.75;;;2.40;;
25319;SDS011;13256;49.012;8.610;2023-06-24T10:50:06;3.92;;;2.35;;
25319;SDS011;13256;49.012;8.610;2023-06-24T10:52:40;4.35;;;2.60;;
25319;SDS011;13256;49.012;8.610;2023-06-24T10:55:13;3.30;;;2.30;;
25319;SDS011;13256;49.012;8.610;2023-06-24T10:57:45;4.40;;;3.08;;
25319;SDS011;13256;49.012;8.610;2023-06-24T11:00:13;4.75;;;2.53;;
25319;SDS011;13256;49.012;8.610;2023-06-24T11:02:45;4.28;;;2.72;;
25319;SDS011;13256;49.012;8.610;2023-06-24T11:05:14;2.70;;;2.30;;
25319;SDS011;13256;49.012;8.610;2023-06-24T11:07:53;4.25;;;2.58;;
25319;SDS011;13256;49.012;8.610;2023-06-24T11:10:33;2.83;;;2.43;;
25319;SDS011;13256;49.012;8.610;2023-06-24T11:13:24;4.15;;;2.28;;
25319;SDS011;13256;49.012;8.610;2023-06-24T11:15:59;3.58;;;2.50;;
25319;SDS011;13256;49.012;8.610;2023-06-24T11:21:09;4.40;;;2.60;;
25319;SDS011;13256;49.012;8.610;2023-06-24T11:23:43;2.40;;;2.20;;
25319;SDS011;13256;49.012;8.610;2023-06-24T11:35:20;3.70;;;2.60;;
25319;SDS011;13256;49.012;8.610;2023-06-24T11:37:53;3.03;;;2.35;;
25319;SDS011;13256;49.012;8.610;2023-06-24T11:40:27;2.92;;;2.13;;
25319;SDS011;13256;49.012;8.610;2023-06-24T11:43:00;2.72;;;2.45;;
25319;SDS011;13256;49.012;8.610;2023-06-24T11:45:29;3.78;;;2.58;;
25319;SDS011;13256;49.012;8.610;2023-06-24T11:48:01;4.47;;;2.60;;
25319;SDS011;13256;49.012;8.610;2023-06-24T11:50:31;3.88;;;2.58;;
25319;SDS011;13256;49.012;8.610;2023-06-24T11:52:58;2.78;;;2.28;;
25319;SDS011;13256;49.012;8.610;2023-06-24T11:55:25;2.70;;;2.25;;
25319;SDS011;13256;49.012;8.610;2023-06-24T12:00:38;4.18;;;2.53;;
25319;SDS011;13256;49.012;8.610;2023-06-24T12:03:10;3.50;;;2.60;;
25319;SDS011;13256;49.012;8.610;2023-06-24T12:05:38;3.83;;;2.30;;
25319;SDS011;13256;49.012;8.610;2023-06-24T12:08:11;5.40;;;2.78;;
25319;SDS011;13256;49.012;8.610;2023-06-24T12:10:40;3.25;;;2.20;;
25319;SDS011;13256;49.012;8.610;2023-06-24T12:13:07;2.85;;;2.35;;
25319;SDS011;13256;49.012;8.610;2023-06-24T12:15:34;4.20;;;2.53;;
25319;SDS011;13256;49.012;8.610;2023-06-24T12:18:02;2.83;;;2.30;;
25319;SDS011;13256;49.012;8.610;2023-06-24T12:20:31;3.08;;;2.40;;
25319;SDS011;13256;49.012;8.610;2023-06-24T12:23:09;2.90;;;2.28;;
25319;SDS011;13256;49.012;8.610;2023-06-24T12:25:36;2.67;;;2.15;;
25319;SDS011;13256;49.012;8.610;2023-06-24T12:28:06;3.00;;;2.22;;
25319;SDS011;13256;49.012;8.610;2023-06-24T12:30:36;4.00;;;2.67;;
25319;SDS011;13256;49.012;8.610;2023-06-24T12:33:06;3.63;;;2.47;;
25319;SDS011;13256;49.012;8.610;2023-06-24T12:35:34;4.70;;;2.40;;
25319;SDS011;13256;49.012;8.610;2023-06-24T12:38:02;5.45;;;3.63;;
25319;SDS011;13256;49.012;8.610;2023-06-24T12:40:33;4.00;;;2.97;;
25319;SDS011;13256;49.012;8.610;2023-06-24T12:43:03;4.27;;;2.37;;
25319;SDS011;13256;49.012;8.610;2023-06-24T12:45:33;3.97;;;2.70;;
25319;SDS011;13256;49.012;8.610;2023-06-24T12:48:02;3.25;;;2.40;;
25319;SDS011;13256;49.012;8.610;2023-06-24T12:50:30;2.47;;;1.95;;
25319;SDS011;13256;49.012;8.610;2023-06-24T12:53:03;5.10;;;3.45;;
25319;SDS011;13256;49.012;8.610;2023-06-24T12:55:30;5.40;;;2.67;;
25319;SDS011;13256;49.012;8.610;2023-06-24T12:57:57;6.30;;;3.83;;
25319;SDS011;13256;49.012;8.610;2023-06-24T13:03:01;5.78;;;2.28;;
25319;SDS011;13256;49.012;8.610;2023-06-24T13:05:33;4.13;;;2.63;;
25319;SDS011;13256;49.012;8.610;2023-06-24T13:08:00;12.05;;;7.18;;
25319;SDS011;13256;49.012;8.610;2023-06-24T13:10:29;3.67;;;2.33;;
25319;SDS011;13256;49.012;8.610;2023-06-24T13:12:56;4.40;;;2.17;;
25319;SDS011;13256;49.012;8.610;2023-06-24T13:15:23;2.88;;;2.45;;
25319;SDS011;13256;49.012;8.610;2023-06-24T13:17:50;2.80;;;2.45;;
25319;SDS011;13256;49.012;8.610;2023-06-24T13:20:17;2.85;;;2.25;;
25319;SDS011;13256;49.012;8.610;2023-06-24T13:22:44;7.82;;;4.60;;
25319;SDS011;13256;49.012;8.610;2023-06-24T13:25:13;4.50;;;2.95;;
25319;SDS011;13256;49.012;8.610;2023-06-24T13:27:44;3.80;;;2.38;;
25319;SDS011;13256;49.012;8.610;2023-06-24T13:30:11;3.80;;;2.40;;
25319;SDS011;13256;49.012;8.610;2023-06-24T13:32:42;7.13;;;2.67;;
25319;SDS011;13256;49.012;8.610;2023-06-24T13:35:09;3.22;;;2.22;;
25319;SDS011;13256;49.012;8.610;2023-06-24T13:37:37;9.98;;;2.53;;
25319;SDS011;13256;49.012;8.610;2023-06-24T13:40:05;2.25;;;1.75;;
25319;SDS011;13256;49.012;8.610;2023-06-24T13:42:32;3.58;;;2.45;;
25319;SDS011;13256;49.012;8.610;2023-06-24T13:45:00;8.50;;;2.15;;
25319;SDS011;13256;49.012;8.610;2023-06-24T13:47:27;4.35;;;2.03;;
25319;SDS011;13256;49.012;8.610;2023-06-24T13:49:57;5.50;;;2.30;;
25319;SDS011;13256;49.012;8.610;2023-06-24T13:52:25;2.88;;;2.15;;
25319;SDS011;13256;49.012;8.610;2023-06-24T13:54:54;4.13;;;1.73;;
25319;SDS011;13256;49.012;8.610;2023-06-24T13:57:21;3.33;;;2.00;;
25319;SDS011;13256;49.012;8.610;2023-06-24T13:59:48;2.90;;;2.17;;
25319;SDS011;13256;49.012;8.610;2023-06-24T14:02:14;5.00;;;2.38;;
25319;SDS011;13256;49.012;8.610;2023-06-24T14:04:42;7.90;;;2.97;;
25319;SDS011;13256;49.012;8.610;2023-06-24T14:07:10;2.55;;;1.92;;
25319;SDS011;13256;49.012;8.610;2023-06-24T14:09:37;2.72;;;2.03;;
25319;SDS011;13256;49.012;8.610;2023-06-24T14:12:08;2.25;;;2.03;;
25319;SDS011;13256;49.012;8.610;2023-06-24T14:14:36;2.92;;;2.08;;
25319;SDS011;13256;49.012;8.610;2023-06-24T14:17:10;2.63;;;2.13;;
25319;SDS011;13256;49.012;8.610;2023-06-24T14:19:43;2.13;;;1.92;;
25319;SDS011;13256;49.012;8.610;2023-06-24T14:22:09;2.50;;;2.08;;
25319;SDS011;13256;49.012;8.610;2023-06-24T14:24:45;3.35;;;2.10;;
25319;SDS011;13256;49.012;8.610;2023-06-24T14:27:14;7.18;;;2.30;;
25319;SDS011;13256;49.012;8.610;2023-06-24T14:29:42;4.45;;;2.05;;
25319;SDS011;13256;49.012;8.610;2023-06-24T14:32:08;3.38;;;1.88;;
25319;SDS011;13256;49.012;8.610;2023-06-24T14:34:36;2.58;;;2.00;;
25319;SDS011;13256;49.012;8.610;2023-06-24T14:37:03;3.40;;;2.00;;
25319;SDS011;13256;49.012;8.610;2023-06-24T14:39:30;3.20;;;2.15;;
25319;SDS011;13256;49.012;8.610;2023-06-24T14:41:56;2.08;;;1.80;;
25319;SDS011;13256;49.012;8.610;2023-06-24T14:44:23;4.72;;;2.13;;
25319;SDS011;13256;49.012;8.610;2023-06-24T14:46:50;2.50;;;1.80;;
25319;SDS011;13256;49.012;8.610;2023-06-24T14:49:19;3.25;;;2.35;;
25319;SDS011;13256;49.012;8.610;2023-06-24T14:51:46;4.30;;;2.13;;
25319;SDS011;13256;49.012;8.610;2023-06-24T14:54:13;4.05;;;2.20;;
25319;SDS011;13256;49.012;8.610;2023-06-24T14:56:40;2.58;;;1.90;;
25319;SDS011;13256;49.012;8.610;2023-06-24T14:59:09;1.92;;;1.73;;
25319;SDS011;13256;49.012;8.610;2023-06-24T15:01:36;5.68;;;2.00;;
25319;SDS011;13256;49.012;8.610;2023-06-24T15:04:03;2.25;;;2.00;;
25319;SDS011;13256;49.012;8.610;2023-06-24T15:06:30;5.32;;;1.90;;
25319;SDS011;13256;49.012;8.610;2023-06-24T15:08:57;3.03;;;1.98;;
25319;SDS011;13256;49.012;8.610;2023-06-24T15:11:24;3.03;;;1.90;;
25319;SDS011;13256;49.012;8.610;2023-06-24T15:13:52;2.40;;;1.92;;
25319;SDS011;13256;49.012;8.610;2023-06-24T15:16:19;3.60;;;2.03;;
25319;SDS011;13256;49.012;8.610;2023-06-24T15:18:46;7.00;;;2.30;;
25319;SDS011;13256;49.012;8.610;2023-06-24T15:21:15;7.85;;;2.30;;
25319;SDS011;13256;49.012;8.610;2023-06-24T15:24:04;3.00;;;2.30;;
25319;SDS011;13256;49.012;8.610;2023-06-24T15:26:31;3.55;;;2.30;;
25319;SDS011;13256;49.012;8.610;2023-06-24T15:28:58;2.33;;;1.65;;
25319;SDS011;13256;49.012;8.610;2023-06-24T15:31:30;6.43;;;2.10;;
25319;SDS011;13256;49.012;8.610;2023-06-24T15:33:57;3.20;;;2.30;;
25319;SDS011;13256;49.012;8.610;2023-06-24T15:36:25;4.75;;;2.20;;
25319;SDS011;13256;49.012;8.610;2023-06-24T15:38:56;3.08;;;2.03;;
25319;SDS011;13256;49.012;8.610;2023-06-24T15:41:26;2.60;;;2.10;;
25319;SDS011;13256;49.012;8.610;2023-06-24T15:43:53;4.57;;;2.20;;
25319;SDS011;13256;49.012;8.610;2023-06-24T15:46:26;3.78;;;2.20;;
25319;SDS011;13256;49.012;8.610;2023-06-24T15:48:54;5.82;;;2.30;;
25319;SDS011;13256;49.012;8.610;2023-06-24T15:51:21;6.15;;;2.28;;
25319;SDS011;13256;49.012;8.610;2023-06-24T15:53:48;2.90;;;1.92;;
25319;SDS011;13256;49.012;8.610;2023-06-24T15:56:15;4.07;;;2.33;;
25319;SDS011;13256;49.012;8.610;2023-06-24T15:58:42;3.53;;;2.30;;
25319;SDS011;13256;49.012;8.610;2023-06-24T16:01:12;2.70;;;2.03;;
25319;SDS011;13256;49.012;8.610;2023-06-24T16:03:39;3.38;;;2.35;;
25319;SDS011;13256;49.012;8.610;2023-06-24T16:06:06;4.95;;;2.45;;
25319;SDS011;13256;49.012;8.610;2023-06-24T16:08:33;5.82;;;3.35;;
25319;SDS011;13256;49.012;8.610;2023-06-24T16:11:02;3.50;;;2.47;;
25319;SDS011;13256;49.012;8.610;2023-06-24T16:13:33;3.63;;;2.45;;
25319;SDS011;13256;49.012;8.610;2023-06-24T16:16:01;5.28;;;2.20;;
25319;SDS011;13256;49.012;8.610;2023-06-24T16:18:56;3.50;;;2.45;;
25319;SDS011;13256;49.012;8.610;2023-06-24T16:21:25;4.93;;;2.30;;
25319;SDS011;13256;49.012;8.610;2023-06-24T16:23:55;3.00;;;1.92;;
25319;SDS011;13256;49.012;8.610;2023-06-24T16:26:23;3.92;;;2.38;;
25319;SDS011;13256;49.012;8.610;2023-06-24T16:28:50;3.97;;;2.30;;
25319;SDS011;13256;49.012;8.610;2023-06-24T16:31:23;3.17;;;2.03;;
25319;SDS011;13256;49.012;8.610;2023-06-24T16:33:53;3.77;;;2.80;;
25319;SDS011;13256;49.012;8.610;2023-06-24T16:36:19;3.92;;;2.55;;
25319;SDS011;13256;49.012;8.610;2023-06-24T16:38:46;3.28;;;2.63;;
25319;SDS011;13256;49.012;8.610;2023-06-24T16:41:13;3.40;;;2.55;;
25319;SDS011;13256;49.012;8.610;2023-06-24T16:44:08;4.60;;;2.22;;
25319;SDS011;13256;49.012;8.610;2023-06-24T16:46:43;6.78;;;2.33;;
25319;SDS011;13256;49.012;8.610;2023-06-24T16:49:10;3.13;;;2.28;;
25319;SDS011;13256;49.012;8.610;2023-06-24T16:51:40;9.93;;;3.42;;
25319;SDS011;13256;49.012;8.610;2023-06-24T16:54:07;3.53;;;2.50;;
25319;SDS011;13256;49.012;8.610;2023-06-24T16:56:34;4.82;;;2.42;;
25319;SDS011;13256;49.012;8.610;2023-06-24T16:59:02;4.50;;;2.10;;
25319;SDS011;13256;49.012;8.610;2023-06-24T17:01:29;10.05;;;2.75;;
25319;SDS011;13256;49.012;8.610;2023-06-24T17:03:59;3.15;;;2.28;;
25319;SDS011;13256;49.012;8.610;2023-06-24T17:06:29;3.55;;;2.45;;
25319;SDS011;13256;49.012;8.610;2023-06-24T17:08:59;3.20;;;2.10;;
25319;SDS011;13256;49.012;8.610;2023-06-24T17:11:27;4.32;;;2.60;;
25319;SDS011;13256;49.012;8.610;2023-06-24T17:13:54;4.50;;;2.70;;
25319;SDS011;13256;49.012;8.610;2023-06-24T17:16:21;3.55;;;2.33;;
25319;SDS011;13256;49.012;8.610;2023-06-24T17:18:51;4.05;;;2.38;;
25319;SDS011;13256;49.012;8.610;2023-06-24T17:21:21;3.53;;;2.20;;
25319;SDS011;13256;49.012;8.610;2023-06-24T17:23:52;4.55;;;2.50;;
25319;SDS011;13256;49.012;8.610;2023-06-24T17:26:19;3.15;;;2.30;;
25319;SDS011;13256;49.012;8.610;2023-06-24T17:28:46;5.03;;;2.83;;
25319;SDS011;13256;49.012;8.610;2023-06-24T17:31:13;4.38;;;2.90;;
25319;SDS011;13256;49.012;8.610;2023-06-24T17:33:42;3.50;;;2.40;;
25319;SDS011;13256;49.012;8.610;2023-06-24T17:36:09;4.32;;;2.78;;
25319;SDS011;13256;49.012;8.610;2023-06-24T17:38:36;5.70;;;3.17;;
25319;SDS011;13256;49.012;8.610;2023-06-24T17:41:03;4.93;;;2.55;;
25319;SDS011;13256;49.012;8.610;2023-06-24T17:43:29;3.97;;;2.53;;
25319;SDS011;13256;49.012;8.610;2023-06-24T17:45:58;4.10;;;3.08;;
25319;SDS011;13256;49.012;8.610;2023-06-24T17:48:24;4.60;;;2.97;;
25319;SDS011;13256;49.012;8.610;2023-06-24T17:51:21;3.47;;;2.33;;
25319;SDS011;13256;49.012;8.610;2023-06-24T17:53:48;3.05;;;2.38;;
25319;SDS011;13256;49.012;8.610;2023-06-24T17:56:16;3.90;;;2.50;;
25319;SDS011;13256;49.012;8.610;2023-06-24T17:58:49;4.50;;;3.20;;
25319;SDS011;13256;49.012;8.610;2023-06-24T18:01:16;4.90;;;2.15;;
25319;SDS011;13256;49.012;8.610;2023-06-24T18:03:43;4.88;;;2.80;;
25319;SDS011;13256;49.012;8.610;2023-06-24T18:06:16;5.45;;;3.30;;
25319;SDS011;13256;49.012;8.610;2023-06-24T18:08:46;4.40;;;2.57;;
25319;SDS011;13256;49.012;8.610;2023-06-24T18:11:16;4.05;;;3.10;;
25319;SDS011;13256;49.012;8.610;2023-06-24T18:13:43;3.42;;;2.40;;
25319;SDS011;13256;49.012;8.610;2023-06-24T18:16:16;3.67;;;2.33;;
25319;SDS011;13256;49.012;8.610;2023-06-24T18:18:43;2.80;;;2.40;;
25319;SDS011;13256;49.012;8.610;2023-06-24T18:21:19;4.53;;;2.25;;
25319;SDS011;13256;49.012;8.610;2023-06-24T18:23:48;4.47;;;2.50;;
25319;SDS011;13256;49.012;8.610;2023-06-24T18:26:18;3.60;;;2.47;;
25319;SDS011;13256;49.012;8.610;2023-06-24T18:28:44;3.85;;;2.70;;
25319;SDS011;13256;49.012;8.610;2023-06-24T18:31:12;3.90;;;2.20;;
25319;SDS011;13256;49.012;8.610;2023-06-24T18:33:39;4.53;;;2.58;;
25319;SDS011;13256;49.012;8.610;2023-06-24T18:36:06;5.43;;;2.38;;
25319;SDS011;13256;49.012;8.610;2023-06-24T18:38:33;3.58;;;2.67;;
25319;SDS011;13256;49.012;8.610;2023-06-24T18:41:00;5.85;;;2.70;;
25319;SDS011;13256;49.012;8.610;2023-06-24T18:43:27;4.38;;;2.60;;
25319;SDS011;13256;49.012;8.610;2023-06-24T18:45:53;3.88;;;2.40;;
25319;SDS011;13256;49.012;8.610;2023-06-24T18:48:20;3.88;;;2.35;;
25319;SDS011;13256;49.012;8.610;2023-06-24T18:50:47;3.33;;;2.45;;
25319;SDS011;13256;49.012;8.610;2023-06-24T18:53:14;3.35;;;2.33;;
25319;SDS011;13256;49.012;8.610;2023-06-24T18:55:43;3.75;;;2.47;;